Time;durP1;ratioP1;P1;durP2;ratioP2;P2;SDS_P1;SDS_P2;PMS_P1;PMS_P2;Temp;Humidity;BMP_temperature;BMP_pressure;BME280_temperature;BME280_humidity;BME280_pressure;Samples;Min_cycle;Max_cycle;Signal;HPM_P1;HPM_P2
2022/08/29 00:00:49;;;;;;;;;;;;;;;16.32;61.90;102147.78;5023587;28;19919;-59
2022/08/29 00:03:14;;;;;;;;;;;;;;;16.28;61.84;102149.13;5022669;28;19917;-59
2022/08/29 00:05:39;;;;;;;;;;;;;;;16.24;61.83;102145.16;5023665;28;19917;-59
2022/08/29 00:08:04;;;;;;;;;;;;;;;16.19;62.42;102145.69;5021222;28;20353;-59
2022/08/29 00:10:35;;;;;;;;;;;;;;;16.14;62.73;102144.50;5028859;28;20068;-59
2022/08/29 00:13:00;;;;;;;;;;;;;;;16.09;62.28;102145.88;5029090;28;20380;-59
2022/08/29 00:15:25;;;;;;;;;;;;;;;16.06;62.30;102140.03;5024429;28;19917;-59
2022/08/29 00:17:51;;;;;;;;;;;;;;;16.03;62.56;102138.53;5025030;28;19996;-58
2022/08/29 00:20:18;;;;;;;;;;;;;;;16.00;62.12;102146.09;5022355;28;19970;-60
2022/08/29 00:22:43;;;;;;;;;;;;;;;15.98;62.61;102140.06;5020740;28;20392;-60
2022/08/29 00:25:10;;;;;;;;;;;;;;;15.95;62.74;102137.75;5028496;28;19959;-59
2022/08/29 00:27:35;;;;;;;;;;;;;;;15.89;62.22;102139.25;5023163;28;19921;-60
2022/08/29 00:30:00;;;;;;;;;;;;;;;15.83;62.65;102144.47;5024221;28;20261;-59
2022/08/29 00:32:33;;;;;;;;;;;;;;;15.74;61.99;102146.34;5024083;28;19924;-59
2022/08/29 00:34:58;;;;;;;;;;;;;;;15.64;62.34;102135.84;5025651;28;19975;-60
2022/08/29 00:37:23;;;;;;;;;;;;;;;15.54;62.31;102145.88;5029100;28;19921;-59
2022/08/29 00:39:49;;;;;;;;;;;;;;;15.45;62.67;102138.88;5022166;28;19913;-59
2022/08/29 00:42:14;;;;;;;;;;;;;;;15.36;62.69;102146.09;5026275;28;20051;-60
2022/08/29 00:44:39;;;;;;;;;;;;;;;15.26;63.31;102150.78;5028835;28;19913;-59
2022/08/29 00:47:07;;;;;;;;;;;;;;;15.16;63.33;102155.47;5022851;28;19913;-59
2022/08/29 00:49:43;;;;;;;;;;;;;;;15.08;63.65;102153.66;5025349;28;19981;-60
2022/08/29 00:52:31;;;;;;;;;;;;;;;15.02;63.50;102165.00;5022437;28;19913;-59
2022/08/29 00:54:58;;;;;;;;;;;;;;;14.98;63.45;102150.28;5008573;28;19939;-59
2022/08/29 00:57:25;;;;;;;;;;;;;;;14.93;63.54;102154.47;5025663;28;19913;-59
2022/08/29 00:59:50;;;;;;;;;;;;;;;14.88;63.49;102150.47;5025166;28;19916;-59
2022/08/29 01:02:16;;;;;;;;;;;;;;;14.85;63.06;102152.63;5025363;28;19913;-59
2022/08/29 01:04:41;;;;;;;;;;;;;;;14.79;63.21;102142.63;5028782;28;19913;-59
2022/08/29 01:07:07;;;;;;;;;;;;;;;14.78;63.85;102141.78;5024832;28;19919;-59
2022/08/29 01:09:34;;;;;;;;;;;;;;;14.81;63.88;102148.63;5020055;28;19920;-59
2022/08/29 01:12:14;;;;;;;;;;;;;;;14.79;63.51;102147.97;5028624;28;19913;-59
2022/08/29 01:14:49;;;;;;;;;;;;;;;14.72;63.64;102152.28;5023571;28;19915;-59
2022/08/29 01:17:16;;;;;;;;;;;;;;;14.71;63.87;102153.28;5031429;28;19927;-59
2022/08/29 01:20:14;;;;;;;;;;;;;;;14.71;63.48;102151.44;5030554;28;19936;-59
2022/08/29 01:23:05;;;;;;;;;;;;;;;14.69;63.82;102152.59;4991937;28;19972;-59
2022/08/29 01:25:34;;;;;;;;;;;;;;;14.66;63.48;102153.78;5023317;28;19968;-60
2022/08/29 01:28:08;;;;;;;;;;;;;;;14.63;63.60;102159.47;5022453;28;19921;-59
2022/08/29 01:30:33;;;;;;;;;;;;;;;14.61;64.05;102160.63;5024603;28;19920;-59
2022/08/29 01:32:59;;;;;;;;;;;;;;;14.60;64.06;102154.44;5027395;28;19913;-59
2022/08/29 01:35:25;;;;;;;;;;;;;;;14.57;63.92;102154.78;5028488;28;19916;-59
2022/08/29 01:37:51;;;;;;;;;;;;;;;14.52;63.99;102151.75;5023724;28;20070;-59
2022/08/29 01:40:16;;;;;;;;;;;;;;;14.48;64.09;102153.94;5023794;28;19912;-59
2022/08/29 01:42:41;;;;;;;;;;;;;;;14.47;64.15;102141.56;5025335;28;19932;-59
2022/08/29 01:45:07;;;;;;;;;;;;;;;14.45;64.17;102143.53;5029690;28;20380;-59
2022/08/29 01:47:34;;;;;;;;;;;;;;;14.36;64.30;102138.31;5036855;28;19917;-59
2022/08/29 01:50:00;;;;;;;;;;;;;;;14.28;64.06;102136.47;5024192;28;19919;-59
2022/08/29 01:52:25;;;;;;;;;;;;;;;14.17;63.84;102139.47;5024683;28;19924;-59
2022/08/29 01:54:50;;;;;;;;;;;;;;;14.16;64.28;102145.78;5018979;28;19909;-59
2022/08/29 01:57:16;;;;;;;;;;;;;;;14.12;64.42;102147.09;5024780;28;19913;-59
2022/08/29 01:59:41;;;;;;;;;;;;;;;14.07;64.60;102152.94;5018305;28;19913;-59
2022/08/29 02:02:27;;;;;;;;;;;;;;;14.03;64.58;102151.59;5021259;28;19920;-59
2022/08/29 02:04:53;;;;;;;;;;;;;;;13.99;64.53;102154.75;5025173;28;19975;-58
2022/08/29 02:07:23;;;;;;;;;;;;;;;13.94;64.65;102144.53;5024819;28;20404;-59
2022/08/29 02:09:48;;;;;;;;;;;;;;;13.90;64.43;102148.53;5022365;28;19920;-59
2022/08/29 02:12:14;;;;;;;;;;;;;;;13.89;64.62;102150.38;5020096;28;19909;-59
2022/08/29 02:14:40;;;;;;;;;;;;;;;13.89;65.05;102144.19;5020792;28;19927;-58
2022/08/29 02:17:06;;;;;;;;;;;;;;;13.90;65.28;102137.84;5022239;28;20564;-59
2022/08/29 02:19:31;;;;;;;;;;;;;;;13.90;65.49;102144.03;5021145;28;19917;-59
2022/08/29 02:21:56;;;;;;;;;;;;;;;13.92;65.78;102147.38;5014676;28;20292;-59
2022/08/29 02:24:22;;;;;;;;;;;;;;;13.87;65.97;102138.97;5023100;28;20066;-59
2022/08/29 02:26:47;;;;;;;;;;;;;;;13.81;65.54;102144.13;5020429;28;20407;-59
2022/08/29 02:29:13;;;;;;;;;;;;;;;13.74;65.59;102156.44;5023140;28;19932;-59
2022/08/29 02:31:39;;;;;;;;;;;;;;;13.66;65.31;102165.25;5027100;28;19920;-59
2022/08/29 02:34:05;;;;;;;;;;;;;;;13.63;65.40;102157.56;5021303;28;19913;-59
2022/08/29 02:36:30;;;;;;;;;;;;;;;13.58;65.48;102165.19;5024609;28;19913;-60
2022/08/29 02:38:55;;;;;;;;;;;;;;;13.54;65.21;102169.19;5020814;28;19927;-57
2022/08/29 02:41:21;;;;;;;;;;;;;;;13.49;65.02;102166.16;5023191;28;19916;-59
2022/08/29 02:43:46;;;;;;;;;;;;;;;13.45;65.64;102167.47;5025388;28;20008;-59
2022/08/29 02:46:12;;;;;;;;;;;;;;;13.42;65.44;102163.28;5023736;28;19939;-58
2022/08/29 02:48:37;;;;;;;;;;;;;;;13.39;66.15;102166.25;5027101;28;20004;-59
2022/08/29 02:51:02;;;;;;;;;;;;;;;13.35;66.08;102172.06;5022314;28;20683;-59
2022/08/29 02:53:29;;;;;;;;;;;;;;;13.30;66.05;102169.88;5023056;28;19917;-59
2022/08/29 02:55:55;;;;;;;;;;;;;;;13.29;66.08;102168.16;5024494;28;19917;-58
2022/08/29 02:58:20;;;;;;;;;;;;;;;13.28;66.00;102170.00;5022442;28;19920;-59
2022/08/29 03:00:46;;;;;;;;;;;;;;;13.29;66.45;102173.50;5019895;28;19921;-60
2022/08/29 03:03:11;;;;;;;;;;;;;;;13.22;66.54;102175.97;5024160;28;20331;-59
2022/08/29 03:05:36;;;;;;;;;;;;;;;13.18;66.61;102174.59;5020545;28;20269;-58
2022/08/29 03:08:04;;;;;;;;;;;;;;;13.16;66.93;102168.56;5023404;28;19956;-59
2022/08/29 03:10:29;;;;;;;;;;;;;;;13.18;66.87;102166.59;5026014;28;19917;-58
2022/08/29 03:12:55;;;;;;;;;;;;;;;13.20;66.88;102169.94;5025469;28;19913;-59
2022/08/29 03:15:20;;;;;;;;;;;;;;;13.22;67.04;102165.28;5023481;28;20377;-58
2022/08/29 03:17:45;;;;;;;;;;;;;;;13.19;66.86;102162.94;5029407;28;19913;-59
2022/08/29 03:20:12;;;;;;;;;;;;;;;13.14;66.90;102167.88;5023046;28;19948;-59
2022/08/29 03:22:37;;;;;;;;;;;;;;;13.07;66.89;102161.50;5027145;28;20405;-59
2022/08/29 03:25:03;;;;;;;;;;;;;;;13.03;66.96;102160.97;5022894;28;19935;-58
2022/08/29 03:27:29;;;;;;;;;;;;;;;13.03;67.31;102160.13;5019833;28;19964;-59
2022/08/29 03:29:54;;;;;;;;;;;;;;;13.00;67.07;102158.59;5022352;28;19908;-57
2022/08/29 03:32:19;;;;;;;;;;;;;;;12.98;67.37;102155.22;5018619;28;19932;-59
2022/08/29 03:34:45;;;;;;;;;;;;;;;12.96;67.58;102153.72;5023310;28;19966;-58
2022/08/29 03:37:10;;;;;;;;;;;;;;;12.93;67.81;102154.03;5024545;28;19909;-58
2022/08/29 03:39:36;;;;;;;;;;;;;;;12.90;67.94;102149.84;5019186;28;20555;-58
2022/08/29 03:42:01;;;;;;;;;;;;;;;12.90;67.54;102147.19;5025387;28;19913;-59
2022/08/29 03:44:27;;;;;;;;;;;;;;;12.91;67.81;102153.34;5019738;28;19948;-59
2022/08/29 03:46:53;;;;;;;;;;;;;;;12.89;68.04;102153.50;5022068;28;19920;-59
2022/08/29 03:49:18;;;;;;;;;;;;;;;12.79;68.15;102149.25;5020816;28;19917;-60
2022/08/29 03:51:43;;;;;;;;;;;;;;;12.82;68.12;102149.78;5022560;28;19925;-59
2022/08/29 03:54:09;;;;;;;;;;;;;;;12.84;67.90;102138.97;5018973;28;19914;-58
2022/08/29 03:56:34;;;;;;;;;;;;;;;12.87;68.08;102141.31;5022015;28;19920;-58
2022/08/29 03:58:59;;;;;;;;;;;;;;;12.91;68.03;102130.19;5023409;28;20007;-58
2022/08/29 04:01:27;;;;;;;;;;;;;;;12.93;68.56;102128.19;5027076;28;19917;-59
2022/08/29 04:03:53;;;;;;;;;;;;;;;12.95;69.37;102123.53;5022231;28;19913;-58
2022/08/29 04:06:19;;;;;;;;;;;;;;;12.94;69.21;102121.88;5022824;28;19917;-59
2022/08/29 04:08:46;;;;;;;;;;;;;;;12.96;69.40;102122.56;5021437;28;19913;-59
2022/08/29 04:11:13;;;;;;;;;;;;;;;12.99;69.42;102124.91;5023186;28;19920;-59
2022/08/29 04:13:38;;;;;;;;;;;;;;;13.01;69.38;102127.44;5022762;28;19921;-59
2022/08/29 04:16:10;;;;;;;;;;;;;;;12.95;69.26;102126.22;5019626;28;19932;-59
2022/08/29 04:18:36;;;;;;;;;;;;;;;12.91;69.04;102129.34;5020629;28;19920;-59
2022/08/29 04:21:02;;;;;;;;;;;;;;;12.87;68.76;102133.31;5024364;28;19913;-58
2022/08/29 04:23:28;;;;;;;;;;;;;;;12.83;69.12;102140.78;5025753;28;19943;-58
2022/08/29 04:25:53;;;;;;;;;;;;;;;12.81;69.29;102133.94;5027287;28;20423;-58
2022/08/29 04:28:18;;;;;;;;;;;;;;;12.82;69.13;102144.44;5021476;28;19920;-60
2022/08/29 04:30:47;;;;;;;;;;;;;;;12.83;69.56;102148.78;5024564;28;19989;-58
2022/08/29 04:33:12;;;;;;;;;;;;;;;12.81;69.67;102141.94;5019210;28;20348;-58
2022/08/29 04:35:38;;;;;;;;;;;;;;;12.76;69.47;102149.56;5024793;28;20432;-59
2022/08/29 04:38:04;;;;;;;;;;;;;;;12.67;69.34;102146.78;5028267;28;19916;-58
2022/08/29 04:40:29;;;;;;;;;;;;;;;12.62;69.17;102151.75;5026197;28;19913;-58
2022/08/29 04:42:54;;;;;;;;;;;;;;;12.55;69.32;102150.69;5031928;28;19952;-59
2022/08/29 04:45:20;;;;;;;;;;;;;;;12.49;69.48;102153.13;5024304;28;20484;-58
2022/08/29 04:47:46;;;;;;;;;;;;;;;12.43;69.42;102145.72;5025439;28;20409;-58
2022/08/29 04:50:13;;;;;;;;;;;;;;;12.39;69.53;102143.34;5024259;28;19913;-58
2022/08/29 04:52:38;;;;;;;;;;;;;;;12.36;69.63;102145.47;5023835;28;19932;-58
2022/08/29 04:55:04;;;;;;;;;;;;;;;12.35;69.62;102163.28;5027956;28;19913;-58
2022/08/29 04:57:29;;;;;;;;;;;;;;;12.35;69.96;102151.78;5023673;28;19941;-58
2022/08/29 04:59:56;;;;;;;;;;;;;;;12.32;69.59;102168.91;5024698;28;19913;-59
2022/08/29 05:02:21;;;;;;;;;;;;;;;12.30;69.67;102162.06;5024042;28;19921;-59
2022/08/29 05:04:51;;;;;;;;;;;;;;;12.30;69.55;102162.06;5022405;28;19939;-58
2022/08/29 05:07:16;;;;;;;;;;;;;;;12.32;69.68;102160.09;5019844;28;19917;-59
2022/08/29 05:09:42;;;;;;;;;;;;;;;12.30;70.00;102164.72;5026788;28;19966;-58
2022/08/29 05:12:08;;;;;;;;;;;;;;;12.27;69.78;102167.69;5022663;28;19913;-58
2022/08/29 05:14:33;;;;;;;;;;;;;;;12.27;69.74;102162.38;5026823;28;20428;-58
2022/08/29 05:16:59;;;;;;;;;;;;;;;12.28;70.17;102164.88;5024810;28;19921;-59
2022/08/29 05:19:24;;;;;;;;;;;;;;;12.31;70.39;102169.06;5025401;28;19999;-58
2022/08/29 05:21:55;;;;;;;;;;;;;;;12.34;71.13;102171.44;5025772;28;19913;-58
2022/08/29 05:24:21;;;;;;;;;;;;;;;12.33;71.19;102173.25;5020851;28;19917;-58
2022/08/29 05:26:46;;;;;;;;;;;;;;;12.37;71.56;102176.47;5023749;28;20007;-58
2022/08/29 05:29:12;;;;;;;;;;;;;;;12.38;71.54;102170.97;5026883;28;20385;-57
2022/08/29 05:31:39;;;;;;;;;;;;;;;12.41;71.95;102183.16;5024193;28;19913;-59
2022/08/29 05:34:05;;;;;;;;;;;;;;;12.42;72.53;102187.50;5023368;28;19917;-58
2022/08/29 05:36:31;;;;;;;;;;;;;;;12.41;72.58;102193.81;5019626;28;20419;-58
2022/08/29 05:38:56;;;;;;;;;;;;;;;12.39;72.73;102183.31;5026884;28;19920;-59
2022/08/29 05:41:21;;;;;;;;;;;;;;;12.35;73.06;102189.94;5030549;28;19913;-57
2022/08/29 05:43:47;;;;;;;;;;;;;;;12.33;72.86;102180.41;5029158;28;19975;-58
2022/08/29 05:46:12;;;;;;;;;;;;;;;12.35;72.49;102189.94;5032445;28;20325;-58
2022/08/29 05:48:41;;;;;;;;;;;;;;;12.40;72.49;102186.81;5027661;28;20016;-58
2022/08/29 05:51:06;;;;;;;;;;;;;;;12.45;72.89;102191.72;5030786;28;20004;-58
2022/08/29 05:53:33;;;;;;;;;;;;;;;12.49;73.13;102190.44;5026416;28;19921;-58
2022/08/29 05:55:58;;;;;;;;;;;;;;;12.53;73.67;102181.16;5022825;28;19924;-58
2022/08/29 05:58:24;;;;;;;;;;;;;;;12.56;73.94;102179.00;5029115;28;19999;-59
2022/08/29 06:00:49;;;;;;;;;;;;;;;12.56;73.93;102178.16;5022748;28;19924;-59
2022/08/29 06:03:14;;;;;;;;;;;;;;;12.60;73.56;102185.72;5015804;28;19918;-59
2022/08/29 06:05:40;;;;;;;;;;;;;;;12.69;74.34;102181.28;5020519;28;19913;-57
2022/08/29 06:08:05;;;;;;;;;;;;;;;12.80;74.21;102194.41;5018365;28;19971;-59
2022/08/29 06:10:31;;;;;;;;;;;;;;;12.89;74.57;102195.31;5022820;28;19948;-57
2022/08/29 06:12:56;;;;;;;;;;;;;;;12.96;74.96;102194.56;5020601;28;19913;-57
2022/08/29 06:15:21;;;;;;;;;;;;;;;13.03;74.87;102195.63;5019830;28;19952;-59
2022/08/29 06:17:47;;;;;;;;;;;;;;;13.10;75.26;102190.53;5024010;28;19913;-58
2022/08/29 06:20:12;;;;;;;;;;;;;;;13.16;75.87;102195.22;5025697;28;20462;-58
2022/08/29 06:22:38;;;;;;;;;;;;;;;13.23;75.05;102200.81;5017577;28;19920;-57
2022/08/29 06:25:04;;;;;;;;;;;;;;;13.31;75.36;102195.56;5017735;28;19917;-58
2022/08/29 06:27:29;;;;;;;;;;;;;;;13.37;75.09;102202.09;5016352;28;19970;-58
2022/08/29 06:29:54;;;;;;;;;;;;;;;13.43;75.03;102199.66;5021342;28;19909;-58
2022/08/29 06:32:20;;;;;;;;;;;;;;;13.52;74.82;102195.19;5019073;28;19913;-59
2022/08/29 06:34:45;;;;;;;;;;;;;;;13.60;74.68;102196.09;5022195;28;19920;-59
2022/08/29 06:37:10;;;;;;;;;;;;;;;13.69;74.26;102205.00;5020624;28;20355;-57
2022/08/29 06:39:35;;;;;;;;;;;;;;;13.78;74.39;102204.03;5019920;28;19920;-59
2022/08/29 06:42:00;;;;;;;;;;;;;;;13.84;74.34;102203.41;5024519;28;19913;-58
2022/08/29 06:44:26;;;;;;;;;;;;;;;13.95;74.71;102211.16;5022486;28;19914;-59
2022/08/29 06:46:51;;;;;;;;;;;;;;;14.05;75.00;102212.84;5034244;28;19921;-58
2022/08/29 06:49:17;;;;;;;;;;;;;;;14.14;74.66;102215.41;5028897;28;20011;-59
2022/08/29 06:51:44;;;;;;;;;;;;;;;14.24;74.83;102217.97;5026376;28;20003;-58
2022/08/29 06:54:10;;;;;;;;;;;;;;;14.34;75.00;102231.19;5029490;28;20337;-58
2022/08/29 06:56:36;;;;;;;;;;;;;;;14.43;75.09;102232.91;5023734;28;19913;-59
2022/08/29 06:59:01;;;;;;;;;;;;;;;14.52;75.07;102232.81;5026894;28;19966;-58
2022/08/29 07:01:26;;;;;;;;;;;;;;;14.61;75.22;102227.47;5027600;28;19916;-58
2022/08/29 07:03:52;;;;;;;;;;;;;;;14.67;75.08;102218.78;5029209;28;19920;-58
2022/08/29 07:06:18;;;;;;;;;;;;;;;14.72;75.08;102219.13;5020987;28;20516;-57
2022/08/29 07:08:43;;;;;;;;;;;;;;;14.80;74.71;102228.03;5027130;28;19962;-57
2022/08/29 07:11:09;;;;;;;;;;;;;;;14.93;74.53;102227.53;5028667;28;19952;-57
2022/08/29 07:13:34;;;;;;;;;;;;;;;15.04;74.53;102232.59;5028386;28;19909;-59
2022/08/29 07:15:59;;;;;;;;;;;;;;;15.16;74.62;102236.59;5027067;28;19917;-59
2022/08/29 07:18:25;;;;;;;;;;;;;;;15.30;74.68;102232.41;5025476;28;20004;-58
2022/08/29 07:20:53;;;;;;;;;;;;;;;15.43;74.33;102226.56;5023003;28;19921;-59
2022/08/29 07:23:18;;;;;;;;;;;;;;;15.54;74.65;102228.88;5024878;28;19916;-58
2022/08/29 07:25:43;;;;;;;;;;;;;;;15.65;73.97;102233.09;5026687;28;19944;-59
2022/08/29 07:28:08;;;;;;;;;;;;;;;15.74;73.62;102232.91;5026870;28;20327;-60
2022/08/29 07:30:34;;;;;;;;;;;;;;;15.84;73.45;102223.84;5029095;28;19917;-59
2022/08/29 07:32:59;;;;;;;;;;;;;;;15.93;73.44;102229.03;5024624;28;20027;-58
2022/08/29 07:35:25;;;;;;;;;;;;;;;16.02;73.00;102230.66;5022243;28;19913;-58
2022/08/29 07:37:50;;;;;;;;;;;;;;;16.11;72.63;102236.81;5030891;28;20388;-58
2022/08/29 07:40:16;;;;;;;;;;;;;;;16.19;72.88;102226.09;5024712;28;19909;-58
2022/08/29 07:42:41;;;;;;;;;;;;;;;16.27;72.71;102220.69;5023487;28;19919;-58
2022/08/29 07:45:08;;;;;;;;;;;;;;;16.35;72.49;102219.81;5025434;28;20527;-58
2022/08/29 07:47:33;;;;;;;;;;;;;;;16.41;71.98;102213.75;5030893;28;19916;-59
2022/08/29 07:50:00;;;;;;;;;;;;;;;16.47;71.62;102210.34;5033311;28;19912;-59
2022/08/29 07:52:25;;;;;;;;;;;;;;;16.55;71.40;102204.13;5020246;28;19912;-58
2022/08/29 07:54:51;;;;;;;;;;;;;;;16.64;71.37;102208.41;5027403;28;19921;-59
2022/08/29 07:57:17;;;;;;;;;;;;;;;16.72;71.08;102211.91;5025508;28;19919;-59
2022/08/29 07:59:42;;;;;;;;;;;;;;;16.80;70.65;102224.47;5028471;28;19956;-58
2022/08/29 08:02:07;;;;;;;;;;;;;;;16.87;70.06;102222.72;5023237;28;19912;-59
2022/08/29 08:04:33;;;;;;;;;;;;;;;16.95;69.71;102214.63;5027611;28;19917;-59
2022/08/29 08:06:58;;;;;;;;;;;;;;;17.02;69.45;102220.94;5029299;28;19917;-60
2022/08/29 08:09:23;;;;;;;;;;;;;;;17.12;69.34;102219.88;5023620;28;20270;-59
2022/08/29 08:11:49;;;;;;;;;;;;;;;17.18;68.65;102209.25;5027005;28;19950;-59
2022/08/29 08:14:14;;;;;;;;;;;;;;;17.25;68.41;102212.03;5025502;28;20431;-59
2022/08/29 08:16:40;;;;;;;;;;;;;;;17.28;68.27;102223.25;5029053;28;19929;-59
2022/08/29 08:19:06;;;;;;;;;;;;;;;17.33;68.12;102215.47;5036046;28;19924;-59
2022/08/29 08:21:31;;;;;;;;;;;;;;;17.41;67.57;102219.97;5020143;28;19913;-59
2022/08/29 08:23:57;;;;;;;;;;;;;;;17.51;67.46;102214.31;5028746;28;19913;-59
2022/08/29 08:26:22;;;;;;;;;;;;;;;17.57;67.01;102219.78;5032128;28;19921;-58
2022/08/29 08:28:47;;;;;;;;;;;;;;;17.65;66.99;102216.22;5029393;28;20284;-59
2022/08/29 08:31:13;;;;;;;;;;;;;;;17.74;66.73;102225.03;5029407;28;19912;-58
2022/08/29 08:33:39;;;;;;;;;;;;;;;17.82;66.13;102219.56;5025195;28;20276;-59
2022/08/29 08:36:12;;;;;;;;;;;;;;;17.88;65.36;102218.81;5028593;28;20641;-59
2022/08/29 08:38:37;;;;;;;;;;;;;;;17.94;64.98;102229.69;5029300;28;19943;-59
2022/08/29 08:41:09;;;;;;;;;;;;;;;18.00;64.45;102220.06;5028810;28;20549;-59
2022/08/29 08:43:46;;;;;;;;;;;;;;;18.09;64.18;102234.22;5023280;28;19924;-59
2022/08/29 08:46:12;;;;;;;;;;;;;;;18.14;63.75;102224.56;5017501;28;19924;-58
2022/08/29 08:48:38;;;;;;;;;;;;;;;18.18;62.70;102225.84;5026400;28;19921;-59
2022/08/29 08:51:06;;;;;;;;;;;;;;;18.24;62.22;102232.38;5025234;28;19991;-59
2022/08/29 08:53:37;;;;;;;;;;;;;;;18.31;61.94;102232.44;5024623;28;19944;-59
2022/08/29 08:56:15;;;;;;;;;;;;;;;18.36;61.44;102220.09;5023438;28;19920;-59
2022/08/29 08:58:54;;;;;;;;;;;;;;;18.43;60.80;102223.69;5022634;28;19917;-59
2022/08/29 09:01:22;;;;;;;;;;;;;;;18.52;60.43;102213.69;5028313;28;19960;-58
2022/08/29 09:03:57;;;;;;;;;;;;;;;18.59;60.46;102219.97;5029398;28;19917;-59
2022/08/29 09:06:34;;;;;;;;;;;;;;;18.66;59.73;102220.91;5028327;28;19963;-59
2022/08/29 09:09:05;;;;;;;;;;;;;;;18.70;58.79;102224.03;5025070;28;20013;-59
2022/08/29 09:11:46;;;;;;;;;;;;;;;18.73;58.43;102227.19;5027774;28;19921;-59
2022/08/29 09:14:16;;;;;;;;;;;;;;;18.79;58.11;102214.81;5031864;28;19917;-58
2022/08/29 09:16:45;;;;;;;;;;;;;;;18.80;57.45;102217.34;5035181;28;19921;-59
2022/08/29 09:19:13;;;;;;;;;;;;;;;18.81;56.89;102223.56;5030066;28;19919;-59
2022/08/29 09:21:46;;;;;;;;;;;;;;;18.83;56.96;102221.50;5026191;28;19921;-59
2022/08/29 09:24:16;;;;;;;;;;;;;;;18.82;56.90;102228.75;5029453;28;19913;-59
2022/08/29 09:26:41;;;;;;;;;;;;;;;18.85;56.66;102231.06;5020891;28;20292;-59
2022/08/29 09:29:08;;;;;;;;;;;;;;;18.88;56.31;102221.75;5027296;28;20369;-59
2022/08/29 09:31:34;;;;;;;;;;;;;;;18.91;56.47;102223.22;5032577;28;19971;-59
2022/08/29 09:33:59;;;;;;;;;;;;;;;18.92;56.17;102231.13;5032128;28;19925;-58
2022/08/29 09:36:37;;;;;;;;;;;;;;;18.95;55.78;102230.72;5034408;28;19936;-59
2022/08/29 09:39:11;;;;;;;;;;;;;;;18.96;55.63;102232.41;5028866;28;19985;-59
2022/08/29 09:41:36;;;;;;;;;;;;;;;18.97;55.48;102236.75;5036086;28;19951;-60
2022/08/29 09:44:02;;;;;;;;;;;;;;;18.94;55.05;102233.63;5026131;28;19928;-59
2022/08/29 09:46:27;;;;;;;;;;;;;;;18.90;55.26;102235.03;5025705;28;19968;-59
2022/08/29 09:49:11;;;;;;;;;;;;;;;18.92;55.33;102227.59;5019684;28;19917;-59
2022/08/29 09:51:38;;;;;;;;;;;;;;;18.93;55.15;102231.94;5019721;28;20392;-59
2022/08/29 09:54:21;;;;;;;;;;;;;;;18.94;55.45;102228.22;5018786;28;19959;-59
2022/08/29 09:56:58;;;;;;;;;;;;;;;18.97;55.41;102233.22;5028973;28;19913;-58
2022/08/29 09:59:28;;;;;;;;;;;;;;;19.00;55.27;102232.84;5034212;28;19913;-58
2022/08/29 10:02:12;;;;;;;;;;;;;;;19.03;55.01;102232.44;5030549;28;19960;-57
2022/08/29 10:04:39;;;;;;;;;;;;;;;19.06;54.89;102229.38;5022120;28;19967;-59
2022/08/29 10:07:09;;;;;;;;;;;;;;;19.10;55.21;102233.38;5043838;28;20007;-59
2022/08/29 10:09:35;;;;;;;;;;;;;;;19.17;54.98;102228.88;5027065;28;20012;-58
2022/08/29 10:12:11;;;;;;;;;;;;;;;19.32;55.07;102235.00;5041672;28;20011;-58
2022/08/29 10:14:44;;;;;;;;;;;;;;;19.48;55.24;102225.81;5026608;28;19928;-59
2022/08/29 10:20:32;;;;;;;;;;;;;;;19.86;53.97;102226.31;5004177;28;19960;-59
2022/08/29 10:23:09;;;;;;;;;;;;;;;20.07;53.30;102225.41;5022984;28;19945;-59
2022/08/29 10:25:36;;;;;;;;;;;;;;;20.25;52.37;102214.91;5019660;28;19923;-59
2022/08/29 10:28:05;;;;;;;;;;;;;;;20.35;52.31;102217.22;5019335;28;19944;-59
2022/08/29 10:30:54;;;;;;;;;;;;;;;20.34;52.13;102227.19;5017747;28;20003;-58
2022/08/29 10:33:19;;;;;;;;;;;;;;;20.51;52.29;102219.59;5008631;28;19932;-59
2022/08/29 10:35:59;;;;;;;;;;;;;;;20.84;51.96;102211.59;5021991;28;19917;-59
2022/08/29 10:38:27;;;;;;;;;;;;;;;21.23;51.20;102216.25;5020321;28;19913;-59
2022/08/29 10:41:01;;;;;;;;;;;;;;;21.52;50.38;102214.16;5020388;28;19913;-59
2022/08/29 10:43:37;;;;;;;;;;;;;;;21.60;49.40;102206.66;5020463;28;19928;-59
2022/08/29 10:46:20;;;;;;;;;;;;;;;21.54;48.95;102212.91;5018064;28;19928;-59
2022/08/29 10:49:04;;;;;;;;;;;;;;;21.43;48.43;102218.13;5023954;28;19928;-59
2022/08/29 10:51:30;;;;;;;;;;;;;;;21.32;48.87;102220.38;5018169;28;19917;-59
2022/08/29 10:54:11;;;;;;;;;;;;;;;21.32;49.10;102209.56;5020306;28;20364;-58
2022/08/29 10:56:39;;;;;;;;;;;;;;;21.32;48.78;102209.56;5016815;28;20573;-59
2022/08/29 10:59:11;;;;;;;;;;;;;;;21.32;48.54;102198.75;5017090;28;20012;-59
2022/08/29 11:01:45;;;;;;;;;;;;;;;21.28;48.51;102197.53;5017296;28;19913;-60
2022/08/29 11:04:17;;;;;;;;;;;;;;;21.25;48.85;102191.72;5023263;28;19924;-59
2022/08/29 11:06:48;;;;;;;;;;;;;;;21.26;48.90;102186.09;5024189;28;19931;-59
2022/08/29 11:09:35;;;;;;;;;;;;;;;21.37;48.93;102189.19;5025872;28;19920;-57
2022/08/29 11:12:03;;;;;;;;;;;;;;;21.44;48.54;102184.63;5027082;28;20010;-58
2022/08/29 11:14:35;;;;;;;;;;;;;;;21.46;48.12;102185.25;5025330;28;19921;-59
2022/08/29 11:17:02;;;;;;;;;;;;;;;21.48;48.13;102185.88;5029208;28;20446;-58
2022/08/29 11:19:31;;;;;;;;;;;;;;;21.53;48.35;102188.78;5020687;28;19999;-58
2022/08/29 11:22:02;;;;;;;;;;;;;;;21.61;48.64;102186.69;5021858;28;19930;-58
2022/08/29 11:24:30;;;;;;;;;;;;;;;21.58;48.53;102181.69;5018008;28;19972;-58
2022/08/29 11:27:08;;;;;;;;;;;;;;;21.61;48.53;102175.84;5020432;28;19921;-58
2022/08/29 11:29:40;;;;;;;;;;;;;;;21.75;48.58;102171.28;5027549;28;19921;-58
2022/08/29 11:32:07;;;;;;;;;;;;;;;21.86;48.58;102154.38;5028296;28;19916;-58
2022/08/29 11:34:42;;;;;;;;;;;;;;;21.93;48.33;102160.59;5030544;28;19947;-58
2022/08/29 11:37:13;;;;;;;;;;;;;;;22.02;48.31;102155.78;5024731;28;19921;-58
2022/08/29 11:39:48;;;;;;;;;;;;;;;22.16;48.00;102153.88;5027891;28;19919;-58
2022/08/29 11:42:15;;;;;;;;;;;;;;;22.18;47.67;102154.47;5029815;28;20304;-58
2022/08/29 11:44:45;;;;;;;;;;;;;;;22.19;47.32;102153.44;5028708;28;19959;-58
2022/08/29 11:47:29;;;;;;;;;;;;;;;22.15;47.36;102155.75;5020252;28;20392;-59
2022/08/29 11:49:54;;;;;;;;;;;;;;;22.10;47.18;102155.56;5029299;28;19913;-58
2022/08/29 11:52:26;;;;;;;;;;;;;;;22.12;47.41;102139.94;5039826;28;19920;-58
2022/08/29 11:55:12;;;;;;;;;;;;;;;22.18;47.28;102149.06;5034098;28;19913;-58
2022/08/29 11:57:44;;;;;;;;;;;;;;;22.19;47.24;102156.13;5031431;28;20009;-58
2022/08/29 12:00:23;;;;;;;;;;;;;;;22.25;47.80;102160.69;5035231;28;20349;-58
2022/08/29 12:02:48;;;;;;;;;;;;;;;22.34;47.30;102153.16;5028662;28;19909;-58
2022/08/29 12:05:16;;;;;;;;;;;;;;;22.34;47.20;102156.69;5040074;28;19927;-58
2022/08/29 12:07:50;;;;;;;;;;;;;;;22.33;47.24;102162.34;5040424;28;19924;-58
2022/08/29 12:10:18;;;;;;;;;;;;;;;22.32;47.18;102160.69;5032230;28;19988;-58
2022/08/29 12:12:44;;;;;;;;;;;;;;;22.27;46.91;102155.09;5036536;28;19990;-58
2022/08/29 12:15:28;;;;;;;;;;;;;;;22.28;47.08;102149.47;5041637;28;19972;-58
2022/08/29 12:17:55;;;;;;;;;;;;;;;22.37;47.00;102141.91;5029987;28;20003;-58
2022/08/29 12:20:40;;;;;;;;;;;;;;;22.36;46.19;102151.06;5033157;28;19970;-58
2022/08/29 12:23:12;;;;;;;;;;;;;;;22.23;46.01;102147.38;5042263;28;19921;-58
2022/08/29 12:25:43;;;;;;;;;;;;;;;22.16;46.10;102148.47;5030264;28;19978;-58
2022/08/29 12:28:08;;;;;;;;;;;;;;;22.10;45.94;102149.31;5036977;28;20614;-58
2022/08/29 12:30:37;;;;;;;;;;;;;;;22.05;46.54;102136.44;5027665;28;20377;-58
2022/08/29 12:33:21;;;;;;;;;;;;;;;21.99;46.73;102139.16;5031195;28;20052;-57
2022/08/29 12:35:53;;;;;;;;;;;;;;;21.99;46.39;102125.63;5023806;28;19909;-58
2022/08/29 12:38:37;;;;;;;;;;;;;;;22.10;46.23;102133.09;5030097;28;19948;-58
2022/08/29 12:41:08;;;;;;;;;;;;;;;22.25;46.38;102125.50;5021093;28;19948;-58
2022/08/29 12:43:35;;;;;;;;;;;;;;;22.38;46.64;102125.44;5019664;28;20451;-59